GMFO/OUD METAR and TAF weather

Enter ICAO airport designator
Station Type Date Time Source
GMFO METAR 2021/08/05 04:30 UTC NOAA

GMFO 050430Z 24003KT 170V320 CAVOK 20/05 Q1017 NOSIG


Station Type Date Time Source
GMFO Decoded METAR 2021/08/05 04:30 UTC NOAA

Oujda, Morocco (GMFO) 34-47N 001-56W 470M
Aug 05, 2021 - 12:30 AM EDT / 2021.08.05 0430 UTC
Wind: from the WSW (240 degrees) at 3 MPH (3 KT) (direction variable):0
Visibility: greater than 7 mile(s):0
Temperature: 68 F (20 C)
Dew Point: 41 F (5 C)
Relative Humidity: 37%
Pressure (altimeter): 30.03 in. Hg (1017 hPa)
ob: GMFO 050430Z 24003KT 170V320 CAVOK 20/05 Q1017 NOSIG
cycle: 4

Station Type Date Time Source
GMFO TAF 2021/08/04 18:18 UTC NOAA

TAF GMFO 041700Z 0418/0524 34012KT CAVOK
BECMG 0423/0503 20003KT PROB30
TEMPO 0502/0507 3000 BR

Example: see airport list